sim
Sign-in with your pilot id or email,
or register
Callsign
Passwort

Schedule Details

Flight Number: RYR8582 (1)
Departure: London Stansted Airport (EGSS) at 16:30
Arrival: Thessaloniki International Airport (LGTS) at 19:40
Route: Ryanair Passenger Schedule. Enter filed route here before submitting Pirep.

Weather Information
Getting current METAR information for EGSS 211520Z AUTO 22008KT 9999 NCD 14/08 Q1027
Getting current METAR information for LGTS 211520Z 35006KT CAVOK 16/00 Q1021 NOSIG

Schedule Frequency

Route Map